sensor_id;sensor_type;location;lat;lon;timestamp;pressure;altitude;pressure_sealevel;temperature;humidity
66681;BME280;53575;51.366;12.350;2022-11-20T00:00:57;100038.38;;;-3.14;93.04
66681;BME280;53575;51.366;12.350;2022-11-20T00:03:22;100029.91;;;-3.13;92.82
66681;BME280;53575;51.366;12.350;2022-11-20T00:05:48;100024.59;;;-3.17;93.15
66681;BME280;53575;51.366;12.350;2022-11-20T00:08:13;100029.50;;;-3.22;93.39
66681;BME280;53575;51.366;12.350;2022-11-20T00:10:39;100026.31;;;-3.36;94.09
66681;BME280;53575;51.366;12.350;2022-11-20T00:13:05;100021.84;;;-3.22;93.60
66681;BME280;53575;51.366;12.350;2022-11-20T00:15:32;100017.78;;;-3.36;93.76
66681;BME280;53575;51.366;12.350;2022-11-20T00:17:57;100020.56;;;-3.32;93.52
66681;BME280;53575;51.366;12.350;2022-11-20T00:20:23;100016.09;;;-3.36;93.31
66681;BME280;53575;51.366;12.350;2022-11-20T00:22:49;100011.66;;;-3.40;93.56
66681;BME280;53575;51.366;12.350;2022-11-20T00:25:15;100006.16;;;-3.49;94.86
66681;BME280;53575;51.366;12.350;2022-11-20T00:27:40;100015.56;;;-3.29;95.44
66681;BME280;53575;51.366;12.350;2022-11-20T00:30:06;100019.47;;;-3.37;95.44
66681;BME280;53575;51.366;12.350;2022-11-20T00:32:32;100019.97;;;-3.26;95.58
66681;BME280;53575;51.366;12.350;2022-11-20T00:34:57;100019.13;;;-3.25;94.44
66681;BME280;53575;51.366;12.350;2022-11-20T00:37:23;100014.44;;;-3.35;94.20
66681;BME280;53575;51.366;12.350;2022-11-20T00:39:48;100015.50;;;-3.30;95.10
66681;BME280;53575;51.366;12.350;2022-11-20T00:42:13;100011.34;;;-3.28;96.83
66681;BME280;53575;51.366;12.350;2022-11-20T00:44:39;100015.03;;;-3.22;97.85
66681;BME280;53575;51.366;12.350;2022-11-20T00:47:04;100012.63;;;-3.19;100.00
66681;BME280;53575;51.366;12.350;2022-11-20T00:49:30;100019.06;;;-3.46;98.19
66681;BME280;53575;51.366;12.350;2022-11-20T00:51:55;100014.16;;;-3.61;98.33
66681;BME280;53575;51.366;12.350;2022-11-20T00:54:21;100009.00;;;-3.43;96.47
66681;BME280;53575;51.366;12.350;2022-11-20T00:56:46;100011.03;;;-3.73;96.21
66681;BME280;53575;51.366;12.350;2022-11-20T00:59:11;100007.13;;;-3.84;96.69
66681;BME280;53575;51.366;12.350;2022-11-20T01:01:37;100007.00;;;-3.68;96.79
66681;BME280;53575;51.366;12.350;2022-11-20T01:04:03;100007.16;;;-3.65;96.59
66681;BME280;53575;51.366;12.350;2022-11-20T01:06:34;100011.66;;;-3.59;96.04
66681;BME280;53575;51.366;12.350;2022-11-20T01:09:02;100010.72;;;-3.61;97.15
66681;BME280;53575;51.366;12.350;2022-11-20T01:11:30;100000.91;;;-3.52;96.67
66681;BME280;53575;51.366;12.350;2022-11-20T01:13:57;100004.31;;;-3.71;96.62
66681;BME280;53575;51.366;12.350;2022-11-20T01:16:26;100001.44;;;-3.40;95.55
66681;BME280;53575;51.366;12.350;2022-11-20T01:18:55;100004.00;;;-3.40;94.18
66681;BME280;53575;51.366;12.350;2022-11-20T01:21:25;100002.44;;;-3.56;94.02
66681;BME280;53575;51.366;12.350;2022-11-20T01:23:51;99994.06;;;-3.53;94.13
66681;BME280;53575;51.366;12.350;2022-11-20T01:26:20;100007.03;;;-3.49;93.93
66681;BME280;53575;51.366;12.350;2022-11-20T01:28:46;100005.28;;;-3.50;93.88
66681;BME280;53575;51.366;12.350;2022-11-20T01:31:18;100009.91;;;-3.60;93.84
66681;BME280;53575;51.366;12.350;2022-11-20T01:33:45;99996.09;;;-3.83;94.38
66681;BME280;53575;51.366;12.350;2022-11-20T01:36:12;100010.44;;;-3.68;94.87
66681;BME280;53575;51.366;12.350;2022-11-20T01:38:38;100011.44;;;-3.64;94.69
66681;BME280;53575;51.366;12.350;2022-11-20T01:41:04;100006.53;;;-3.59;94.93
66681;BME280;53575;51.366;12.350;2022-11-20T01:43:30;100000.38;;;-3.45;94.32
66681;BME280;53575;51.366;12.350;2022-11-20T01:48:26;99991.56;;;-3.52;98.45
66681;BME280;53575;51.366;12.350;2022-11-20T01:50:53;100008.22;;;-3.60;96.25
66681;BME280;53575;51.366;12.350;2022-11-20T01:53:25;100004.44;;;-3.68;96.44
66681;BME280;53575;51.366;12.350;2022-11-20T01:55:55;99987.47;;;-3.85;95.87
66681;BME280;53575;51.366;12.350;2022-11-20T01:58:28;99992.56;;;-3.68;96.00
66681;BME280;53575;51.366;12.350;2022-11-20T02:00:55;99984.28;;;-3.81;97.12
66681;BME280;53575;51.366;12.350;2022-11-20T02:03:21;99983.13;;;-3.88;97.51
66681;BME280;53575;51.366;12.350;2022-11-20T02:08:33;99982.69;;;-3.60;99.00
66681;BME280;53575;51.366;12.350;2022-11-20T02:10:59;99976.03;;;-3.56;98.15
66681;BME280;53575;51.366;12.350;2022-11-20T02:13:24;99977.88;;;-3.54;99.94
66681;BME280;53575;51.366;12.350;2022-11-20T02:16:13;99967.91;;;-3.48;98.94
66681;BME280;53575;51.366;12.350;2022-11-20T02:18:40;99968.13;;;-3.62;97.35
66681;BME280;53575;51.366;12.350;2022-11-20T02:21:12;99972.56;;;-3.58;98.55
66681;BME280;53575;51.366;12.350;2022-11-20T02:26:21;99968.53;;;-3.53;96.35
66681;BME280;53575;51.366;12.350;2022-11-20T02:28:48;99972.00;;;-3.51;96.67
66681;BME280;53575;51.366;12.350;2022-11-20T02:31:14;99966.69;;;-3.56;95.40
66681;BME280;53575;51.366;12.350;2022-11-20T02:33:39;99968.53;;;-3.53;94.09
66681;BME280;53575;51.366;12.350;2022-11-20T02:36:05;99963.06;;;-3.61;95.50
66681;BME280;53575;51.366;12.350;2022-11-20T02:38:31;99958.34;;;-3.71;96.97
66681;BME280;53575;51.366;12.350;2022-11-20T02:40:56;99964.91;;;-3.96;98.77
66681;BME280;53575;51.366;12.350;2022-11-20T02:43:22;99961.84;;;-4.06;99.80
66681;BME280;53575;51.366;12.350;2022-11-20T02:45:48;99960.53;;;-3.98;99.75
66681;BME280;53575;51.366;12.350;2022-11-20T02:48:13;99967.47;;;-4.13;98.92
66681;BME280;53575;51.366;12.350;2022-11-20T02:50:39;99962.69;;;-3.88;100.00
66681;BME280;53575;51.366;12.350;2022-11-20T02:53:05;99957.91;;;-4.00;98.86
66681;BME280;53575;51.366;12.350;2022-11-20T02:55:30;99957.34;;;-4.30;98.67
66681;BME280;53575;51.366;12.350;2022-11-20T02:57:56;99958.13;;;-4.13;98.91
66681;BME280;53575;51.366;12.350;2022-11-20T03:00:21;99960.38;;;-4.01;98.78
66681;BME280;53575;51.366;12.350;2022-11-20T03:02:47;99951.75;;;-3.85;97.77
66681;BME280;53575;51.366;12.350;2022-11-20T03:05:12;99945.03;;;-3.83;96.95
66681;BME280;53575;51.366;12.350;2022-11-20T03:07:38;99954.84;;;-3.93;97.30
66681;BME280;53575;51.366;12.350;2022-11-20T03:10:04;99951.44;;;-3.74;96.97
66681;BME280;53575;51.366;12.350;2022-11-20T03:12:29;99957.50;;;-3.89;96.72
66681;BME280;53575;51.366;12.350;2022-11-20T03:14:55;99955.28;;;-4.01;97.36
66681;BME280;53575;51.366;12.350;2022-11-20T03:17:20;99946.22;;;-3.95;98.84
66681;BME280;53575;51.366;12.350;2022-11-20T03:19:45;99945.31;;;-3.97;99.14
66681;BME280;53575;51.366;12.350;2022-11-20T03:22:11;99949.97;;;-4.06;99.06
66681;BME280;53575;51.366;12.350;2022-11-20T03:24:36;99944.81;;;-4.07;99.58
66681;BME280;53575;51.366;12.350;2022-11-20T03:27:02;99954.13;;;-4.08;99.25
66681;BME280;53575;51.366;12.350;2022-11-20T03:29:27;99936.00;;;-3.77;100.00
66681;BME280;53575;51.366;12.350;2022-11-20T03:31:52;99941.03;;;-4.15;100.00
66681;BME280;53575;51.366;12.350;2022-11-20T03:34:18;99927.16;;;-4.03;100.00
66681;BME280;53575;51.366;12.350;2022-11-20T03:36:43;99932.50;;;-4.34;100.00
66681;BME280;53575;51.366;12.350;2022-11-20T03:39:09;99925.88;;;-4.30;100.00
66681;BME280;53575;51.366;12.350;2022-11-20T03:41:37;99916.88;;;-4.04;100.00
66681;BME280;53575;51.366;12.350;2022-11-20T03:44:05;99923.06;;;-4.17;100.00
66681;BME280;53575;51.366;12.350;2022-11-20T03:46:32;99928.47;;;-4.11;100.00
66681;BME280;53575;51.366;12.350;2022-11-20T03:48:58;99923.88;;;-4.18;100.00
66681;BME280;53575;51.366;12.350;2022-11-20T03:51:25;99928.16;;;-3.99;100.00
66681;BME280;53575;51.366;12.350;2022-11-20T03:53:53;99918.69;;;-4.02;100.00
66681;BME280;53575;51.366;12.350;2022-11-20T03:56:23;99921.09;;;-3.85;100.00
66681;BME280;53575;51.366;12.350;2022-11-20T03:58:49;99919.97;;;-3.92;100.00
66681;BME280;53575;51.366;12.350;2022-11-20T04:01:20;99924.13;;;-3.94;100.00
66681;BME280;53575;51.366;12.350;2022-11-20T04:03:46;99925.47;;;-4.02;99.97
66681;BME280;53575;51.366;12.350;2022-11-20T04:06:17;99924.81;;;-4.16;99.38
66681;BME280;53575;51.366;12.350;2022-11-20T04:08:43;99928.78;;;-4.41;100.00
66681;BME280;53575;51.366;12.350;2022-11-20T04:11:19;99925.44;;;-4.39;100.00
66681;BME280;53575;51.366;12.350;2022-11-20T04:13:53;99934.19;;;-4.34;99.90
66681;BME280;53575;51.366;12.350;2022-11-20T04:16:19;99930.09;;;-4.49;99.82
66681;BME280;53575;51.366;12.350;2022-11-20T04:18:45;99937.09;;;-4.45;99.56
66681;BME280;53575;51.366;12.350;2022-11-20T04:21:11;99938.41;;;-4.53;98.94
66681;BME280;53575;51.366;12.350;2022-11-20T04:23:37;99929.25;;;-4.49;98.01
66681;BME280;53575;51.366;12.350;2022-11-20T04:26:08;99931.50;;;-4.37;97.45
66681;BME280;53575;51.366;12.350;2022-11-20T04:28:35;99931.28;;;-4.42;97.08
66681;BME280;53575;51.366;12.350;2022-11-20T04:31:15;99926.47;;;-4.54;97.43
66681;BME280;53575;51.366;12.350;2022-11-20T04:33:41;99920.78;;;-4.48;98.12
66681;BME280;53575;51.366;12.350;2022-11-20T04:36:12;99919.56;;;-4.38;97.88
66681;BME280;53575;51.366;12.350;2022-11-20T04:38:37;99920.19;;;-4.60;98.48
66681;BME280;53575;51.366;12.350;2022-11-20T04:41:05;99919.44;;;-4.58;98.51
66681;BME280;53575;51.366;12.350;2022-11-20T04:43:32;99915.09;;;-4.43;98.60
66681;BME280;53575;51.366;12.350;2022-11-20T04:45:58;99922.09;;;-4.38;98.19
66681;BME280;53575;51.366;12.350;2022-11-20T04:48:28;99914.66;;;-4.34;98.72
66681;BME280;53575;51.366;12.350;2022-11-20T04:50:54;99910.84;;;-4.24;99.39
66681;BME280;53575;51.366;12.350;2022-11-20T04:53:21;99899.03;;;-4.22;98.76
66681;BME280;53575;51.366;12.350;2022-11-20T04:55:47;99909.25;;;-4.40;98.50
66681;BME280;53575;51.366;12.350;2022-11-20T04:58:13;99908.03;;;-4.30;98.85
66681;BME280;53575;51.366;12.350;2022-11-20T05:00:39;99907.53;;;-4.41;99.74
66681;BME280;53575;51.366;12.350;2022-11-20T05:03:04;99908.53;;;-4.55;100.00
66681;BME280;53575;51.366;12.350;2022-11-20T05:05:30;99902.72;;;-4.35;100.00
66681;BME280;53575;51.366;12.350;2022-11-20T05:07:57;99908.81;;;-4.31;100.00
66681;BME280;53575;51.366;12.350;2022-11-20T05:10:23;99908.09;;;-4.47;100.00
66681;BME280;53575;51.366;12.350;2022-11-20T05:12:49;99905.31;;;-4.33;100.00
66681;BME280;53575;51.366;12.350;2022-11-20T05:15:14;99905.63;;;-4.27;100.00
66681;BME280;53575;51.366;12.350;2022-11-20T05:17:40;99900.13;;;-4.17;100.00
66681;BME280;53575;51.366;12.350;2022-11-20T05:20:06;99899.00;;;-4.04;99.25
66681;BME280;53575;51.366;12.350;2022-11-20T05:22:31;99911.13;;;-4.18;98.91
66681;BME280;53575;51.366;12.350;2022-11-20T05:24:57;99908.72;;;-4.15;98.65
66681;BME280;53575;51.366;12.350;2022-11-20T05:27:22;99915.38;;;-4.19;98.70
66681;BME280;53575;51.366;12.350;2022-11-20T05:29:48;99905.31;;;-4.15;100.00
66681;BME280;53575;51.366;12.350;2022-11-20T05:32:13;99905.53;;;-4.47;100.00
66681;BME280;53575;51.366;12.350;2022-11-20T05:34:39;99902.06;;;-4.31;100.00
66681;BME280;53575;51.366;12.350;2022-11-20T05:37:04;99894.66;;;-4.25;100.00
66681;BME280;53575;51.366;12.350;2022-11-20T05:39:30;99900.75;;;-4.41;100.00
66681;BME280;53575;51.366;12.350;2022-11-20T05:41:55;99890.84;;;-4.34;100.00
66681;BME280;53575;51.366;12.350;2022-11-20T05:44:39;99891.94;;;-4.10;100.00
66681;BME280;53575;51.366;12.350;2022-11-20T05:47:05;99877.63;;;-4.26;100.00
66681;BME280;53575;51.366;12.350;2022-11-20T05:49:30;99886.59;;;-4.52;100.00
66681;BME280;53575;51.366;12.350;2022-11-20T05:51:56;99882.16;;;-4.38;100.00
66681;BME280;53575;51.366;12.350;2022-11-20T05:54:21;99887.44;;;-4.15;100.00
66681;BME280;53575;51.366;12.350;2022-11-20T05:56:47;99880.47;;;-4.20;100.00
66681;BME280;53575;51.366;12.350;2022-11-20T05:59:12;99875.72;;;-4.30;100.00
66681;BME280;53575;51.366;12.350;2022-11-20T06:01:38;99883.84;;;-4.38;99.54
66681;BME280;53575;51.366;12.350;2022-11-20T06:04:03;99883.19;;;-4.34;100.00
66681;BME280;53575;51.366;12.350;2022-11-20T06:06:29;99883.13;;;-4.17;100.00
66681;BME280;53575;51.366;12.350;2022-11-20T06:08:55;99880.91;;;-4.09;98.58
66681;BME280;53575;51.366;12.350;2022-11-20T06:11:20;99874.75;;;-4.14;97.84
66681;BME280;53575;51.366;12.350;2022-11-20T06:13:46;99879.50;;;-4.22;97.72
66681;BME280;53575;51.366;12.350;2022-11-20T06:16:14;99872.06;;;-4.17;97.37
66681;BME280;53575;51.366;12.350;2022-11-20T06:18:41;99875.22;;;-4.23;97.52
66681;BME280;53575;51.366;12.350;2022-11-20T06:21:08;99876.34;;;-4.16;96.79
66681;BME280;53575;51.366;12.350;2022-11-20T06:23:35;99873.78;;;-4.16;95.69
66681;BME280;53575;51.366;12.350;2022-11-20T06:26:09;99871.50;;;-4.29;97.96
66681;BME280;53575;51.366;12.350;2022-11-20T06:28:34;99876.09;;;-4.40;99.28
66681;BME280;53575;51.366;12.350;2022-11-20T06:31:01;99869.91;;;-4.27;98.52
66681;BME280;53575;51.366;12.350;2022-11-20T06:33:26;99875.34;;;-4.20;97.53
66681;BME280;53575;51.366;12.350;2022-11-20T06:35:52;99875.00;;;-4.27;97.17
66681;BME280;53575;51.366;12.350;2022-11-20T06:38:21;99882.59;;;-4.09;98.72
66681;BME280;53575;51.366;12.350;2022-11-20T06:40:46;99881.72;;;-4.29;97.59
66681;BME280;53575;51.366;12.350;2022-11-20T06:43:11;99879.97;;;-4.30;96.83
66681;BME280;53575;51.366;12.350;2022-11-20T06:45:37;99877.91;;;-4.20;97.38
66681;BME280;53575;51.366;12.350;2022-11-20T06:48:03;99877.97;;;-4.18;96.60
66681;BME280;53575;51.366;12.350;2022-11-20T06:50:28;99875.56;;;-4.15;96.24
66681;BME280;53575;51.366;12.350;2022-11-20T06:52:54;99874.59;;;-4.17;96.22
66681;BME280;53575;51.366;12.350;2022-11-20T06:55:19;99873.78;;;-4.16;98.04
66681;BME280;53575;51.366;12.350;2022-11-20T06:57:45;99878.25;;;-4.12;96.82
66681;BME280;53575;51.366;12.350;2022-11-20T07:00:11;99870.47;;;-4.15;95.24
66681;BME280;53575;51.366;12.350;2022-11-20T07:02:36;99874.94;;;-4.09;96.75
66681;BME280;53575;51.366;12.350;2022-11-20T07:05:02;99867.91;;;-4.15;96.96
66681;BME280;53575;51.366;12.350;2022-11-20T07:07:27;99877.50;;;-4.09;96.02
66681;BME280;53575;51.366;12.350;2022-11-20T07:09:53;99874.38;;;-4.04;94.94
66681;BME280;53575;51.366;12.350;2022-11-20T07:12:18;99869.25;;;-4.04;93.93
66681;BME280;53575;51.366;12.350;2022-11-20T07:14:44;99859.06;;;-4.04;93.18
66681;BME280;53575;51.366;12.350;2022-11-20T07:17:09;99867.72;;;-4.20;93.85
66681;BME280;53575;51.366;12.350;2022-11-20T07:19:35;99872.59;;;-4.05;94.04
66681;BME280;53575;51.366;12.350;2022-11-20T07:22:00;99873.78;;;-4.16;93.24
66681;BME280;53575;51.366;12.350;2022-11-20T07:24:25;99872.06;;;-4.17;93.75
66681;BME280;53575;51.366;12.350;2022-11-20T07:26:51;99871.13;;;-4.19;94.81
66681;BME280;53575;51.366;12.350;2022-11-20T07:29:16;99876.09;;;-4.22;93.59
66681;BME280;53575;51.366;12.350;2022-11-20T07:31:42;99876.22;;;-4.19;93.25
66681;BME280;53575;51.366;12.350;2022-11-20T07:34:08;99876.75;;;-4.26;93.98
66681;BME280;53575;51.366;12.350;2022-11-20T07:36:33;99874.19;;;-4.26;94.08
66681;BME280;53575;51.366;12.350;2022-11-20T07:38:59;99874.09;;;-4.28;93.73
66681;BME280;53575;51.366;12.350;2022-11-20T07:41:24;99878.69;;;-4.21;94.20
66681;BME280;53575;51.366;12.350;2022-11-20T07:43:50;99873.69;;;-4.19;93.91
66681;BME280;53575;51.366;12.350;2022-11-20T07:46:15;99877.81;;;-4.21;93.95
66681;BME280;53575;51.366;12.350;2022-11-20T07:48:40;99876.91;;;-4.23;94.02
66681;BME280;53575;51.366;12.350;2022-11-20T07:51:06;99873.69;;;-4.19;95.65
66681;BME280;53575;51.366;12.350;2022-11-20T07:53:31;99873.41;;;-4.06;93.98
66681;BME280;53575;51.366;12.350;2022-11-20T07:56:01;99866.47;;;-4.08;93.38
66681;BME280;53575;51.366;12.350;2022-11-20T07:58:28;99872.53;;;-4.06;93.31
66681;BME280;53575;51.366;12.350;2022-11-20T08:00:54;99866.38;;;-4.11;93.50
66681;BME280;53575;51.366;12.350;2022-11-20T08:03:19;99867.38;;;-4.08;94.14
66681;BME280;53575;51.366;12.350;2022-11-20T08:05:45;99863.63;;;-3.97;96.64
66681;BME280;53575;51.366;12.350;2022-11-20T08:08:10;99866.44;;;-3.90;95.77
66681;BME280;53575;51.366;12.350;2022-11-20T08:10:36;99860.41;;;-3.93;94.10
66681;BME280;53575;51.366;12.350;2022-11-20T08:13:01;99854.75;;;-3.85;93.71
66681;BME280;53575;51.366;12.350;2022-11-20T08:15:49;99861.63;;;-3.84;92.86
66681;BME280;53575;51.366;12.350;2022-11-20T08:18:16;99860.59;;;-3.88;92.70
66681;BME280;53575;51.366;12.350;2022-11-20T08:20:42;99860.31;;;-3.94;92.78
66681;BME280;53575;51.366;12.350;2022-11-20T08:23:08;99860.78;;;-3.83;92.80
66681;BME280;53575;51.366;12.350;2022-11-20T08:25:35;99862.72;;;-3.78;92.77
66681;BME280;53575;51.366;12.350;2022-11-20T08:28:04;99861.94;;;-3.77;92.63
66681;BME280;53575;51.366;12.350;2022-11-20T08:30:30;99860.53;;;-3.70;92.69
66681;BME280;53575;51.366;12.350;2022-11-20T08:33:01;99862.88;;;-3.75;92.88
66681;BME280;53575;51.366;12.350;2022-11-20T08:35:27;99865.56;;;-3.72;93.25
66681;BME280;53575;51.366;12.350;2022-11-20T08:37:52;99861.19;;;-3.74;93.12
66681;BME280;53575;51.366;12.350;2022-11-20T08:40:17;99856.22;;;-3.71;93.09
66681;BME280;53575;51.366;12.350;2022-11-20T08:42:47;99860.78;;;-3.64;93.02
66681;BME280;53575;51.366;12.350;2022-11-20T08:45:13;99858.50;;;-3.58;93.40
66681;BME280;53575;51.366;12.350;2022-11-20T08:47:39;99868.88;;;-3.55;93.04
66681;BME280;53575;51.366;12.350;2022-11-20T08:50:06;99865.69;;;-3.49;93.47
66681;BME280;53575;51.366;12.350;2022-11-20T08:52:32;99862.16;;;-3.51;93.29
66681;BME280;53575;51.366;12.350;2022-11-20T08:54:57;99861.63;;;-3.44;92.87
66681;BME280;53575;51.366;12.350;2022-11-20T08:57:22;99865.59;;;-3.31;93.19
66681;BME280;53575;51.366;12.350;2022-11-20T08:59:48;99870.81;;;-3.28;92.69
66681;BME280;53575;51.366;12.350;2022-11-20T09:02:14;99867.34;;;-3.30;93.41
66681;BME280;53575;51.366;12.350;2022-11-20T09:04:39;99871.06;;;-3.22;93.68
66681;BME280;53575;51.366;12.350;2022-11-20T09:07:05;99868.56;;;-3.21;93.35
66681;BME280;53575;51.366;12.350;2022-11-20T09:09:30;99867.34;;;-3.09;93.21
66681;BME280;53575;51.366;12.350;2022-11-20T09:11:56;99856.09;;;-3.13;92.84
66681;BME280;53575;51.366;12.350;2022-11-20T09:14:21;99865.47;;;-3.13;93.42
66681;BME280;53575;51.366;12.350;2022-11-20T09:16:49;99857.56;;;-3.20;93.42
66681;BME280;53575;51.366;12.350;2022-11-20T09:19:15;99867.66;;;-3.23;93.38
66681;BME280;53575;51.366;12.350;2022-11-20T09:21:41;99868.53;;;-3.22;93.89
66681;BME280;53575;51.366;12.350;2022-11-20T09:24:06;99862.22;;;-3.09;94.01
66681;BME280;53575;51.366;12.350;2022-11-20T09:26:32;99870.34;;;-2.99;93.96
66681;BME280;53575;51.366;12.350;2022-11-20T09:28:57;99863.63;;;-2.97;93.79
66681;BME280;53575;51.366;12.350;2022-11-20T09:31:24;99862.06;;;-2.93;93.38
66681;BME280;53575;51.366;12.350;2022-11-20T09:33:51;99863.84;;;-2.90;93.29
66681;BME280;53575;51.366;12.350;2022-11-20T09:36:16;99853.75;;;-2.87;93.48
66681;BME280;53575;51.366;12.350;2022-11-20T09:38:44;99860.81;;;-2.82;94.45
66681;BME280;53575;51.366;12.350;2022-11-20T09:47:02;99836.47;;;-2.50;93.56
66681;BME280;53575;51.366;12.350;2022-11-20T09:52:36;99840.75;;;-2.49;93.22
66681;BME280;53575;51.366;12.350;2022-11-20T09:55:10;99840.31;;;-2.38;93.34
66681;BME280;53575;51.366;12.350;2022-11-20T09:57:39;99839.72;;;-2.31;92.97
66681;BME280;53575;51.366;12.350;2022-11-20T10:00:10;99836.34;;;-2.30;93.04
66681;BME280;53575;51.366;12.350;2022-11-20T10:02:42;99835.75;;;-2.23;92.89
66681;BME280;53575;51.366;12.350;2022-11-20T10:05:24;99832.78;;;-2.34;93.38
66681;BME280;53575;51.366;12.350;2022-11-20T10:08:10;99829.66;;;-2.27;94.71
66681;BME280;53575;51.366;12.350;2022-11-20T10:13:45;99808.50;;;-1.99;95.36
66681;BME280;53575;51.366;12.350;2022-11-20T10:17:23;99807.69;;;-1.98;94.93
66681;BME280;53575;51.366;12.350;2022-11-20T10:19:29;99812.69;;;-1.77;93.85
66681;BME280;53575;51.366;12.350;2022-11-20T10:25:11;99800.28;;;-1.64;94.19
66681;BME280;53575;51.366;12.350;2022-11-20T10:30:26;99796.38;;;-1.29;93.93
66681;BME280;53575;51.366;12.350;2022-11-20T10:32:54;99808.00;;;-1.13;92.85
66681;BME280;53575;51.366;12.350;2022-11-20T10:37:55;99798.91;;;-1.04;90.90
66681;BME280;53575;51.366;12.350;2022-11-20T10:40:43;99795.03;;;-0.91;89.84
66681;BME280;53575;51.366;12.350;2022-11-20T10:45:52;99792.16;;;-0.73;89.91
66681;BME280;53575;51.366;12.350;2022-11-20T10:56:17;99785.38;;;-0.71;88.60
66681;BME280;53575;51.366;12.350;2022-11-20T11:01:15;99774.19;;;-0.73;90.40
66681;BME280;53575;51.366;12.350;2022-11-20T11:03:42;99773.16;;;-0.80;90.32
66681;BME280;53575;51.366;12.350;2022-11-20T11:08:53;99772.97;;;-0.86;89.88
66681;BME280;53575;51.366;12.350;2022-11-20T11:11:28;99767.94;;;-0.83;89.51
66681;BME280;53575;51.366;12.350;2022-11-20T11:14:21;99760.16;;;-0.84;89.69
66681;BME280;53575;51.366;12.350;2022-11-20T11:16:55;99764.56;;;-0.80;89.55
66681;BME280;53575;51.366;12.350;2022-11-20T11:19:21;99755.38;;;-1.02;89.34
66681;BME280;53575;51.366;12.350;2022-11-20T11:21:49;99751.03;;;-1.03;89.81
66681;BME280;53575;51.366;12.350;2022-11-20T11:26:58;99749.00;;;-0.86;88.47
66681;BME280;53575;51.366;12.350;2022-11-20T11:29:25;99746.81;;;-0.74;88.58
66681;BME280;53575;51.366;12.350;2022-11-20T11:32:14;99746.59;;;-0.53;87.98
66681;BME280;53575;51.366;12.350;2022-11-20T11:34:40;99739.59;;;-0.27;87.21
66681;BME280;53575;51.366;12.350;2022-11-20T11:37:15;99739.78;;;-0.21;86.86
66681;BME280;53575;51.366;12.350;2022-11-20T11:39:43;99738.28;;;-0.13;86.05
66681;BME280;53575;51.366;12.350;2022-11-20T11:42:17;99733.91;;;-0.17;84.51
66681;BME280;53575;51.366;12.350;2022-11-20T11:44:45;99739.25;;;-0.09;84.79
66681;BME280;53575;51.366;12.350;2022-11-20T11:55:48;99734.75;;;-0.18;84.90
66681;BME280;53575;51.366;12.350;2022-11-20T11:58:47;99739.97;;;-0.15;85.50
66681;BME280;53575;51.366;12.350;2022-11-20T12:04:18;99727.75;;;0.08;85.67
66681;BME280;53575;51.366;12.350;2022-11-20T12:06:51;99731.56;;;0.24;84.57
66681;BME280;53575;51.366;12.350;2022-11-20T12:09:24;99727.41;;;0.29;83.70
66681;BME280;53575;51.366;12.350;2022-11-20T12:12:02;99720.38;;;0.22;83.13
66681;BME280;53575;51.366;12.350;2022-11-20T12:14:41;99721.22;;;0.21;83.54
66681;BME280;53575;51.366;12.350;2022-11-20T12:17:11;99710.81;;;0.16;84.00
66681;BME280;53575;51.366;12.350;2022-11-20T12:19:37;99710.84;;;0.18;83.65
66681;BME280;53575;51.366;12.350;2022-11-20T12:25:05;99697.25;;;0.22;83.16
66681;BME280;53575;51.366;12.350;2022-11-20T12:30:15;99705.41;;;0.39;82.62
66681;BME280;53575;51.366;12.350;2022-11-20T12:53:05;99690.97;;;0.45;81.24
66681;BME280;53575;51.366;12.350;2022-11-20T13:01:25;99680.56;;;0.39;81.13
66681;BME280;53575;51.366;12.350;2022-11-20T13:06:52;99695.16;;;0.40;81.38
66681;BME280;53575;51.366;12.350;2022-11-20T13:09:20;99702.78;;;0.37;81.11
66681;BME280;53575;51.366;12.350;2022-11-20T13:11:58;99693.34;;;0.36;81.27
66681;BME280;53575;51.366;12.350;2022-11-20T13:17:11;99694.53;;;0.51;81.37
66681;BME280;53575;51.366;12.350;2022-11-20T13:19:40;99696.28;;;0.52;81.06
66681;BME280;53575;51.366;12.350;2022-11-20T13:22:08;99687.81;;;0.57;81.24
66681;BME280;53575;51.366;12.350;2022-11-20T13:24:35;99693.97;;;0.62;80.62
66681;BME280;53575;51.366;12.350;2022-11-20T13:29:41;99676.69;;;0.57;79.80
66681;BME280;53575;51.366;12.350;2022-11-20T13:32:20;99670.53;;;0.50;79.71
66681;BME280;53575;51.366;12.350;2022-11-20T13:34:53;99662.84;;;0.52;79.32
66681;BME280;53575;51.366;12.350;2022-11-20T13:37:33;99655.81;;;0.44;79.64
66681;BME280;53575;51.366;12.350;2022-11-20T13:42:44;99656.84;;;0.51;77.79
66681;BME280;53575;51.366;12.350;2022-11-20T13:45:23;99652.47;;;0.47;77.60
66681;BME280;53575;51.366;12.350;2022-11-20T13:47:51;99655.94;;;0.49;77.49
66681;BME280;53575;51.366;12.350;2022-11-20T13:50:17;99668.00;;;0.52;77.16
66681;BME280;53575;51.366;12.350;2022-11-20T14:00:58;99652.47;;;0.47;77.81
66681;BME280;53575;51.366;12.350;2022-11-20T14:03:29;99651.59;;;0.46;77.62
66681;BME280;53575;51.366;12.350;2022-11-20T14:06:04;99648.19;;;0.46;77.42
66681;BME280;53575;51.366;12.350;2022-11-20T14:08:36;99650.94;;;0.54;77.12
66681;BME280;53575;51.366;12.350;2022-11-20T14:11:30;99653.41;;;0.51;77.27
66681;BME280;53575;51.366;12.350;2022-11-20T14:16:22;99638.06;;;0.54;77.65
66681;BME280;53575;51.366;12.350;2022-11-20T14:18:48;99653.31;;;0.46;78.50
66681;BME280;53575;51.366;12.350;2022-11-20T14:21:29;99655.13;;;0.50;79.26
66681;BME280;53575;51.366;12.350;2022-11-20T14:24:10;99655.81;;;0.44;80.64
66681;BME280;53575;51.366;12.350;2022-11-20T14:26:37;99661.06;;;0.49;81.67
66681;BME280;53575;51.366;12.350;2022-11-20T14:29:13;99651.56;;;0.45;82.17
66681;BME280;53575;51.366;12.350;2022-11-20T14:31:38;99660.97;;;0.44;82.76
66681;BME280;53575;51.366;12.350;2022-11-20T14:34:04;99659.13;;;0.39;83.49
66681;BME280;53575;51.366;12.350;2022-11-20T14:36:29;99650.47;;;0.35;84.34
66681;BME280;53575;51.366;12.350;2022-11-20T14:38:55;99661.56;;;0.34;84.44
66681;BME280;53575;51.366;12.350;2022-11-20T14:41:22;99662.50;;;0.36;84.59
66681;BME280;53575;51.366;12.350;2022-11-20T14:43:58;99664.13;;;0.33;85.09